地図

経路データ

SID SEASON NUMBER BASIN SUBBASIN NAME ISO_TIME NATURE LAT LON WMO_WIND WMO_PRES WMO_AGENCY TRACK_TYPE DIST2LAND LANDFALL IFLAG USA_AGENCY USA_ATCF_ID USA_LAT USA_LON USA_RECORD USA_STATUS USA_WIND USA_PRES USA_SSHS USA_R34_NE USA_R34_SE USA_R34_SW USA_R34_NW USA_R50_NE USA_R50_SE USA_R50_SW USA_R50_NW USA_R64_NE USA_R64_SE USA_R64_SW USA_R64_NW USA_POCI USA_ROCI USA_RMW USA_EYE TOKYO_LAT TOKYO_LON TOKYO_GRADE TOKYO_WIND TOKYO_PRES TOKYO_R50_DIR TOKYO_R50_LONG TOKYO_R50_SHORT TOKYO_R30_DIR TOKYO_R30_LONG TOKYO_R30_SHORT TOKYO_LAND CMA_LAT CMA_LON CMA_CAT CMA_WIND CMA_PRES HKO_LAT HKO_LON HKO_CAT HKO_WIND HKO_PRES NEWDELHI_LAT NEWDELHI_LON NEWDELHI_GRADE NEWDELHI_WIND NEWDELHI_PRES NEWDELHI_CI NEWDELHI_DP NEWDELHI_POCI REUNION_LAT REUNION_LON REUNION_TYPE REUNION_WIND REUNION_PRES REUNION_TNUM REUNION_CI REUNION_RMW REUNION_R34_NE REUNION_R34_SE REUNION_R34_SW REUNION_R34_NW REUNION_R50_NE REUNION_R50_SE REUNION_R50_SW REUNION_R50_NW REUNION_R64_NE REUNION_R64_SE REUNION_R64_SW REUNION_R64_NW BOM_LAT BOM_LON BOM_TYPE BOM_WIND BOM_PRES BOM_TNUM BOM_CI BOM_RMW BOM_R34_NE BOM_R34_SE BOM_R34_SW BOM_R34_NW BOM_R50_NE BOM_R50_SE BOM_R50_SW BOM_R50_NW BOM_R64_NE BOM_R64_SE BOM_R64_SW BOM_R64_NW BOM_ROCI BOM_POCI BOM_EYE BOM_POS_METHOD BOM_PRES_METHOD NADI_LAT NADI_LON NADI_CAT NADI_WIND NADI_PRES WELLINGTON_LAT WELLINGTON_LON WELLINGTON_WIND WELLINGTON_PRES DS824_LAT DS824_LON DS824_STAGE DS824_WIND DS824_PRES TD9636_LAT TD9636_LON TD9636_STAGE TD9636_WIND TD9636_PRES TD9635_LAT TD9635_LON TD9635_WIND TD9635_PRES TD9635_ROCI NEUMANN_LAT NEUMANN_LON NEUMANN_CLASS NEUMANN_WIND NEUMANN_PRES MLC_LAT MLC_LON MLC_CLASS MLC_WIND MLC_PRES USA_GUST BOM_GUST BOM_GUST_PER REUNION_GUST REUNION_GUST_PER USA_SEAHGT USA_SEARAD_NE USA_SEARAD_SE USA_SEARAD_SW USA_SEARAD_NW STORM_SPEED STORM_DIR
1908342S12122 1909 55 SI WA NOT_NAMED 1908-12-06 12:00:00 NR -12.2000 121.800 main 254 254 __________O___ -1 -12.2000 121.800 7 2 162
1908342S12122 1909 55 SI WA NOT_NAMED 1908-12-06 15:00:00 NR -12.3063 121.833 main 264 264 __________P___ -1 -12.3063 121.833 7 2 165
1908342S12122 1909 55 SI WA NOT_NAMED 1908-12-06 18:00:00 NR -12.4200 121.862 main 279 279 __________P___ -1 -12.4200 121.862 7 2 166
1908342S12122 1909 55 SI WA NOT_NAMED 1908-12-06 21:00:00 NR -12.5488 121.886 main 288 288 __________P___ -1 -12.5488 121.886 7 3 172
1908342S12122 1909 55 SI WA NOT_NAMED 1908-12-07 00:00:00 NR -12.7000 121.900 main 309 309 __________O___ -1 -12.7000 121.900 7 3 0
1908342S12122 1909 55 SI WA NOT_NAMED 1908-12-07 03:00:00 NR -12.8784 121.903 main 328 328 __________P___ -1 -12.8784 121.903 7 4 0
1908342S12122 1909 55 SI WA NOT_NAMED 1908-12-07 06:00:00 NR -13.0775 121.900 main 348 348 __________P___ -1 -13.0775 121.900 7 4 0
1908342S12122 1909 55 SI WA NOT_NAMED 1908-12-07 09:00:00 NR -13.2878 121.897 main 368 352 __________P___ -1 -13.2878 121.897 7 4 0
1908342S12122 1909 55 SI WA NOT_NAMED 1908-12-07 12:00:00 NR -13.5000 121.900 main 352 331 __________O___ -1 -13.5000 121.900 7 4 0
1908342S12122 1909 55 SI WA NOT_NAMED 1908-12-07 15:00:00 NR -13.6838 121.922 main 331 310 __________P___ -1 -13.6838 121.922 7 4 172
1908342S12122 1909 55 SI WA NOT_NAMED 1908-12-07 18:00:00 NR -13.8700 121.950 main 310 285 __________P___ -1 -13.8700 121.950 7 4 172
1908342S12122 1909 55 SI WA NOT_NAMED 1908-12-07 21:00:00 NR -14.0713 121.978 main 285 264 __________P___ -1 -14.0713 121.978 7 4 173
1908342S12122 1909 55 SI WA NOT_NAMED 1908-12-08 00:00:00 NR -14.3000 122.000 main 264 233 __________O___ -1 -14.3000 122.000 7 5 175
1908342S12122 1909 55 SI WA NOT_NAMED 1908-12-08 03:00:00 NR -14.5834 122.011 main 233 203 __________P___ -1 -14.5834 122.011 7 6 0
1908342S12122 1909 55 SI WA NOT_NAMED 1908-12-08 06:00:00 NR -14.8925 122.015 main 203 174 __________P___ -1 -14.8925 122.015 7 6 0
1908342S12122 1909 55 SI WA NOT_NAMED 1908-12-08 09:00:00 NR -15.2053 122.011 main 174 147 __________P___ -1 -15.2053 122.011 7 6 182
1908342S12122 1909 55 SI WA NOT_NAMED 1908-12-08 12:00:00 NR -15.5000 122.000 main 147 139 __________O___ -1 -15.5000 122.000 7 4 0
1908342S12122 1909 55 SI WA NOT_NAMED 1908-12-08 15:00:00 NR -15.6369 122.014 main 139 123 __________P___ -1 -15.6369 122.014 7 3 175
1908342S12122 1909 55 SI WA NOT_NAMED 1908-12-08 18:00:00 NR -15.7701 122.016 main 123 108 __________P___ -1 -15.7701 122.016 7 4 0
1908342S12122 1909 55 SI WA NOT_NAMED 1908-12-08 21:00:00 NR -15.9932 121.985 main 108 84 __________P___ -1 -15.9932 121.985 7 6 190
1908342S12122 1909 55 SI WA NOT_NAMED 1908-12-09 00:00:00 NR -16.4000 121.900 main 84 48 __________O___ -1 -16.4000 121.900 7 12 190
1908342S12122 1909 55 SI WA NOT_NAMED 1908-12-09 03:00:00 NR -17.1219 121.784 main 48 42 __________P___ -1 -17.1219 121.784 7 17 190
1908342S12122 1909 55 SI WA NOT_NAMED 1908-12-09 06:00:00 NR -18.0271 121.606 main 54 15 __________P___ -1 -18.0271 121.606 7 20 192
1908342S12122 1909 55 SI WA NOT_NAMED 1908-12-09 09:00:00 NR -19.0187 121.349 main 23 0 __________P___ -1 -19.0187 121.349 7 21 196
1908342S12122 1909 55 SI WA NOT_NAMED 1908-12-09 12:00:00 NR -20.0000 121.000 main 0 0 __________O___ -1 -20.0000 121.000 7 21 206
1908342S12122 1909 55 SI WA NOT_NAMED 1908-12-09 15:00:00 NR -20.8998 120.388 main 0 0 __________P___ -1 -20.8998 120.388 7 21 214
1908342S12122 1909 55 SI WA NOT_NAMED 1908-12-09 18:00:00 NR -21.7601 119.708 main 0 0 __________P___ -1 -21.7601 119.708 7 20 216
1908342S12122 1909 55 SI WA NOT_NAMED 1908-12-09 21:00:00 NR -22.5399 119.122 main 0 0 __________P___ -1 -22.5399 119.122 7 17 210
1908342S12122 1909 55 SI WA NOT_NAMED 1908-12-10 00:00:00 NR -23.2000 118.800 main 0 0 __________O___ -1 -23.2000 118.800 7 12 187
1908342S12122 1909 55 SI WA NOT_NAMED 1908-12-10 03:00:00 NR -23.7170 118.953 main 0 0 __________P___ -1 -23.7170 118.953 7 11 150
1908342S12122 1909 55 SI WA NOT_NAMED 1908-12-10 06:00:00 NR -24.1151 119.386 main 0 0 __________P___ -1 -24.1151 119.386 7 12 127
1908342S12122 1909 55 SI WA NOT_NAMED 1908-12-10 09:00:00 NR -24.4305 119.977 main 0 0 __________P___ -1 -24.4305 119.977 7 13 118
1908342S12122 1909 55 SI WA NOT_NAMED 1908-12-10 12:00:00 NR -24.7000 120.600 main 0 0 __________O___ -1 -24.7000 120.600 7 11 119
1908342S12122 1909 55 SI WA NOT_NAMED 1908-12-10 15:00:00 NR -24.9475 121.015 main 0 0 __________P___ -1 -24.9475 121.015 7 9 121
1908342S12122 1909 55 SI WA NOT_NAMED 1908-12-10 18:00:00 NR -25.1671 121.443 main 0 0 __________P___ -1 -25.1671 121.443 7 9 119
1908342S12122 1909 55 SI WA NOT_NAMED 1908-12-10 21:00:00 NR -25.4032 121.925 main 0 0 __________P___ -1 -25.4032 121.925 7 11 119
1908342S12122 1909 55 SI WA NOT_NAMED 1908-12-11 00:00:00 NR -25.7000 122.500 main 0 0 __________O___ -1 -25.7000 122.500 7 14 121
1908342S12122 1909 55 SI WA NOT_NAMED 1908-12-11 03:00:00 NR -26.1241 123.238 main 0 0 __________P___ -1 -26.1241 123.238 7 17 123
1908342S12122 1909 55 SI WA NOT_NAMED 1908-12-11 06:00:00 NR -26.6073 124.072 main 0 0 __________P___ -1 -26.6073 124.072 7 18 123
1908342S12122 1909 55 SI WA NOT_NAMED 1908-12-11 09:00:00 NR -27.1115 124.945 main 0 0 __________P___ -1 -27.1115 124.945 7 18 123
1908342S12122 1909 55 SI WA NOT_NAMED 1908-12-11 12:00:00 NR -27.6000 125.800 main 0 0 __________O___ -1 -27.6000 125.800 7 17 123
1908342S12122 1909 55 SI WA NOT_NAMED 1908-12-11 15:00:00 NR -28.0350 126.536 main 0 0 __________P___ -1 -28.0350 126.536 7 15 124
1908342S12122 1909 55 SI WA NOT_NAMED 1908-12-11 18:00:00 NR -28.4486 127.246 main 0 0 __________P___ -1 -28.4486 127.246 7 15 123
1908342S12122 1909 55 SI WA NOT_NAMED 1908-12-11 21:00:00 NR -28.8381 127.958 main 0 0 __________P___ -1 -28.8381 127.958 7 15 121
1908342S12122 1909 55 SI WA NOT_NAMED 1908-12-12 00:00:00 NR -29.2000 128.700 main 0 0 __________O___ -1 -29.2000 128.700 7 15 117
1908342S12122 1909 55 SI WA NOT_NAMED 1908-12-12 03:00:00 NR -29.5449 129.527 main 0 0 __________P___ -1 -29.5449 129.527 7 16 114
1908342S12122 1909 55 SI WA NOT_NAMED 1908-12-12 06:00:00 NR -29.8600 130.386 main 0 0 __________P___ -1 -29.8600 130.386 7 16 112
1908342S12122 1909 55 SI WA NOT_NAMED 1908-12-12 09:00:00 NR -30.1449 131.252 main 0 0 __________P___ -1 -30.1449 131.252 7 16 110
1908342S12122 1909 55 SI WA NOT_NAMED 1908-12-12 12:00:00 NR -30.4000 132.100 main 0 0 __________O___ -1 -30.4000 132.100 7 14 111
1908342S12122 1909 55 SI WA NOT_NAMED 1908-12-12 15:00:00 NR -30.6305 132.751 main 0 0 __________P___ -1 -30.6305 132.751 7 12 111
1908342S12122 1909 55 SI WA NOT_NAMED 1908-12-12 18:00:00 NR -30.8358 133.401 main 0 0 __________P___ -1 -30.8358 133.401 7 13 108
1908342S12122 1909 55 SI WA NOT_NAMED 1908-12-12 21:00:00 NR -31.0240 134.176 main 0 0 __________P___ -1 -31.0240 134.176 7 16 103
1908342S12122 1909 55 SP EA NOT_NAMED 1908-12-13 00:00:00 NR -31.2000 135.200 main 0 0 __________O___ -1 -31.2000 135.200 7 22 100
1908342S12122 1909 55 SP EA NOT_NAMED 1908-12-13 03:00:00 NR -31.3883 136.660 main 0 0 __________P___ -1 -31.3883 136.660 7 27 97
1908342S12122 1909 55 SP EA NOT_NAMED 1908-12-13 06:00:00 NR -31.5453 138.371 main 0 0 __________P___ -1 -31.5453 138.371 7 30 95
1908342S12122 1909 55 SP EA NOT_NAMED 1908-12-13 09:00:00 NR -31.6528 140.198 main 0 0 __________P___ -1 -31.6528 140.198 7 31 93
1908342S12122 1909 55 SP EA NOT_NAMED 1908-12-13 12:00:00 NR -31.7000 142.000 main 0 0 __________O___ -1 -31.7000 142.000 7 30 91
1908342S12122 1909 55 SP EA NOT_NAMED 1908-12-13 15:00:00 NR -31.6859 143.669 main 0 0 __________P___ -1 -31.6859 143.669 7 27 88
1908342S12122 1909 55 SP EA NOT_NAMED 1908-12-13 18:00:00 NR -31.6228 145.216 main 0 0 __________P___ -1 -31.6228 145.216 7 26 86
1908342S12122 1909 55 SP EA NOT_NAMED 1908-12-13 21:00:00 NR -31.5239 146.680 main 0 0 __________P___ -1 -31.5239 146.680 7 25 85
1908342S12122 1909 55 SP EA NOT_NAMED 1908-12-14 00:00:00 NR -31.4000 148.100 main 0 __________O___ -1 -31.4000 148.100 7 24 84

IBTrACS Databaseについて

本データベースは、米国NOAAが公開する1842年以降の世界の熱帯低気圧のベストトラックデータアーカイブInternational Best Track Archive for Climate Stewardship (IBTrACS)を、ウェブで閲覧しやすい形式に変換したものです。

最終更新日:2021-12-03